Time;durP1;ratioP1;P1;durP2;ratioP2;P2;SDS_P1;SDS_P2;PMS_P1;PMS_P2;Temp;Humidity;BMP_temperature;BMP_pressure;BME280_temperature;BME280_humidity;BME280_pressure;Samples;Min_cycle;Max_cycle;Signal;HPM_P1;HPM_P2
2023/04/16 00:00:11;;;;;;;;;;;7.40;99.90;;;;;;4919557;29;19929;-82
2023/04/16 00:02:40;;;;;;;;;;;7.30;99.90;;;;;;4917483;29;19923;-82
2023/04/16 00:05:07;;;;;;;;;;;7.40;99.90;;;;;;4919249;29;19923;-82
2023/04/16 00:07:34;;;;;;;;;;;7.40;99.90;;;;;;4919384;29;20319;-82
2023/04/16 00:10:01;;;;;;;;;;;7.30;99.90;;;;;;4918871;29;19923;-83
2023/04/16 00:12:28;;;;;;;;;;;7.40;99.90;;;;;;4918998;29;19971;-82
2023/04/16 00:14:54;;;;;;;;;;;7.30;99.90;;;;;;4918479;29;19949;-83
2023/04/16 00:17:21;;;;;;;;;;;7.30;99.90;;;;;;4920679;29;19923;-82
2023/04/16 00:19:48;;;;;;;;;;;7.30;99.90;;;;;;4920114;29;19923;-82
2023/04/16 00:24:46;;;;;;;;;;;7.30;99.90;;;;;;4919192;29;19933;-83
2023/04/16 00:27:13;;;;;;;;;;;7.30;99.90;;;;;;4918986;29;19923;-82
2023/04/16 00:29:39;;;;;;;;;;;7.20;99.90;;;;;;4916070;29;19926;-82
2023/04/16 00:32:06;;;;;;;;;;;7.20;99.90;;;;;;4903193;29;20017;-82
2023/04/16 00:34:34;;;;;;;;;;;7.30;99.90;;;;;;4903209;29;20010;-82
2023/04/16 00:37:01;;;;;;;;;;;7.30;99.90;;;;;;4918150;29;19977;-82
2023/04/16 00:39:28;;;;;;;;;;;7.30;99.90;;;;;;4902818;29;20243;-82
2023/04/16 00:41:57;;;;;;;;;;;7.30;99.90;;;;;;4902433;29;20247;-83
2023/04/16 00:44:23;;;;;;;;;;;7.30;99.90;;;;;;4918801;29;19923;-81
2023/04/16 00:46:52;;;;;;;;;;;7.20;99.90;;;;;;4902831;29;19934;-82
2023/04/16 00:49:18;;;;;;;;;;;7.20;99.90;;;;;;4918769;29;20266;-82
2023/04/16 00:51:45;;;;;;;;;;;7.20;99.90;;;;;;4919486;29;20270;-82
2023/04/16 00:54:12;;;;;;;;;;;7.20;99.90;;;;;;4903069;29;20266;-82
2023/04/16 00:56:38;;;;;;;;;;;7.10;99.90;;;;;;4902351;29;20034;-82
2023/04/16 00:59:05;;;;;;;;;;;7.10;99.90;;;;;;4902683;29;20025;-82
2023/04/16 01:01:32;;;;;;;;;;;7.10;99.90;;;;;;4902274;29;20315;-82
2023/04/16 01:04:01;;;;;;;;;;;7.10;99.90;;;;;;4919618;29;19959;-82
2023/04/16 01:06:28;;;;;;;;;;;7.10;99.90;;;;;;4902728;29;19923;-82
2023/04/16 01:08:54;;;;;;;;;;;7.10;99.90;;;;;;4901887;29;20443;-82
2023/04/16 01:11:21;;;;;;;;;;;7.00;99.90;;;;;;4902565;29;20278;-82
2023/04/16 01:13:49;;;;;;;;;;;7.00;99.90;;;;;;4902171;29;19934;-82
2023/04/16 01:16:16;;;;;;;;;;;7.00;99.90;;;;;;4901791;29;19930;-82
2023/04/16 01:18:42;;;;;;;;;;;7.00;99.90;;;;;;4902242;29;19931;-82
2023/04/16 01:21:09;;;;;;;;;;;6.90;99.90;;;;;;4902628;29;19922;-82
2023/04/16 01:26:40;;;;;;;;;;;6.90;99.90;;;;;;4918576;29;20005;-82
2023/04/16 01:29:07;;;;;;;;;;;6.90;99.90;;;;;;4901373;29;19923;-82
2023/04/16 01:31:34;;;;;;;;;;;6.80;99.90;;;;;;4918972;29;19922;-82
2023/04/16 01:34:12;;;;;;;;;;;6.80;99.90;;;;;;4903765;29;20021;-82
2023/04/16 01:36:39;;;;;;;;;;;6.90;99.90;;;;;;4901474;29;19938;-82
2023/04/16 01:39:06;;;;;;;;;;;6.90;99.90;;;;;;4902266;29;19934;-82
2023/04/16 01:41:33;;;;;;;;;;;6.90;99.90;;;;;;4901522;29;19923;-82
2023/04/16 01:46:45;;;;;;;;;;;6.90;99.90;;;;;;4919104;29;19938;-82
2023/04/16 01:49:12;;;;;;;;;;;6.90;99.90;;;;;;4900955;29;19929;-82
2023/04/16 01:51:38;;;;;;;;;;;6.90;99.90;;;;;;4918676;29;19923;-82
2023/04/16 01:54:07;;;;;;;;;;;6.90;99.90;;;;;;4902233;29;20022;-82
2023/04/16 01:56:34;;;;;;;;;;;6.80;99.90;;;;;;4901639;29;19961;-81
2023/04/16 01:59:01;;;;;;;;;;;6.90;99.90;;;;;;4902318;29;20446;-81
2023/04/16 02:01:33;;;;;;;;;;;6.80;99.90;;;;;;4901421;29;19955;-82
2023/04/16 02:04:02;;;;;;;;;;;6.80;99.90;;;;;;4917821;29;20343;-82
2023/04/16 02:06:30;;;;;;;;;;;6.80;99.90;;;;;;4917580;29;19981;-82
2023/04/16 02:08:57;;;;;;;;;;;6.80;99.90;;;;;;4916837;29;20021;-82
2023/04/16 02:11:25;;;;;;;;;;;6.80;99.90;;;;;;4917774;29;20353;-82
2023/04/16 02:13:53;;;;;;;;;;;6.80;99.90;;;;;;4917725;29;19983;-82
2023/04/16 02:16:20;;;;;;;;;;;6.80;99.90;;;;;;4916825;29;19969;-82
2023/04/16 02:18:50;;;;;;;;;;;6.80;99.90;;;;;;4917331;29;19927;-82
2023/04/16 02:21:19;;;;;;;;;;;6.80;99.90;;;;;;4917540;29;20022;-81
2023/04/16 02:23:50;;;;;;;;;;;6.80;99.90;;;;;;4916912;29;19922;-82
2023/04/16 02:26:22;;;;;;;;;;;6.80;99.90;;;;;;4921668;29;19922;-82
2023/04/16 02:28:49;;;;;;;;;;;6.70;99.90;;;;;;4920090;29;20255;-82
2023/04/16 02:31:21;;;;;;;;;;;6.70;99.90;;;;;;4921064;29;19931;-82
2023/04/16 02:36:33;;;;;;;;;;;6.70;99.90;;;;;;4920347;29;20393;-82
2023/04/16 02:39:00;;;;;;;;;;;6.70;99.90;;;;;;4920743;29;19978;-82
2023/04/16 02:41:27;;;;;;;;;;;6.70;99.90;;;;;;4904343;29;19979;-82
2023/04/16 02:46:39;;;;;;;;;;;6.70;99.90;;;;;;4920936;29;20043;-82
2023/04/16 02:49:06;;;;;;;;;;;6.70;99.90;;;;;;4919873;29;19923;-83
2023/04/16 02:51:33;;;;;;;;;;;6.80;99.90;;;;;;4921735;29;19923;-82
2023/04/16 02:54:01;;;;;;;;;;;6.80;99.90;;;;;;4920683;29;20365;-82
2023/04/16 02:56:29;;;;;;;;;;;6.80;99.90;;;;;;4919934;29;19951;-82
2023/04/16 02:58:56;;;;;;;;;;;6.80;99.90;;;;;;4921273;29;19926;-82
2023/04/16 03:01:22;;;;;;;;;;;6.80;99.90;;;;;;4904878;29;20338;-83
2023/04/16 03:06:19;;;;;;;;;;;6.70;99.90;;;;;;4920307;29;19929;-82
2023/04/16 03:08:46;;;;;;;;;;;6.70;99.90;;;;;;4920487;29;19927;-82
2023/04/16 03:11:14;;;;;;;;;;;6.80;99.90;;;;;;4920528;29;19951;-82
2023/04/16 03:13:41;;;;;;;;;;;6.80;99.90;;;;;;4920373;29;20346;-83
2023/04/16 03:16:09;;;;;;;;;;;6.70;99.90;;;;;;4919608;29;19982;-82
2023/04/16 03:18:36;;;;;;;;;;;6.70;99.90;;;;;;4920075;29;19974;-82
2023/04/16 03:21:02;;;;;;;;;;;6.70;99.90;;;;;;4920257;29;19933;-81
2023/04/16 03:26:00;;;;;;;;;;;6.70;99.90;;;;;;4901310;29;19923;-82
2023/04/16 03:28:27;;;;;;;;;;;6.80;99.90;;;;;;4900288;29;19934;-83
2023/04/16 03:30:54;;;;;;;;;;;6.80;99.90;;;;;;4902141;29;19978;-81
2023/04/16 03:33:22;;;;;;;;;;;6.80;99.90;;;;;;4901158;29;19959;-82
2023/04/16 03:35:51;;;;;;;;;;;6.80;99.90;;;;;;4900080;29;20355;-83
2023/04/16 03:38:18;;;;;;;;;;;6.80;99.90;;;;;;4902165;29;19923;-82
2023/04/16 03:40:45;;;;;;;;;;;6.90;99.90;;;;;;4901980;29;20311;-82
2023/04/16 03:46:00;;;;;;;;;;;6.90;99.90;;;;;;4901068;29;20275;-82
2023/04/16 03:48:27;;;;;;;;;;;6.90;99.90;;;;;;4900294;29;20308;-82
2023/04/16 03:50:54;;;;;;;;;;;6.90;99.90;;;;;;4900932;29;19923;-82
2023/04/16 03:53:21;;;;;;;;;;;6.90;99.90;;;;;;4900901;29;19931;-82
2023/04/16 03:55:48;;;;;;;;;;;6.90;99.90;;;;;;4900042;29;19923;-82
2023/04/16 03:58:15;;;;;;;;;;;6.90;99.90;;;;;;4900562;29;19931;-83
2023/04/16 04:00:42;;;;;;;;;;;7.00;99.90;;;;;;4900611;29;20421;-82
2023/04/16 04:03:18;;;;;;;;;;;7.00;99.90;;;;;;4899903;29;19930;-83
2023/04/16 04:05:47;;;;;;;;;;;7.00;99.90;;;;;;4900502;29;19927;-82
2023/04/16 04:08:20;;;;;;;;;;;7.00;99.90;;;;;;4899719;29;19930;-82
2023/04/16 04:10:47;;;;;;;;;;;7.10;99.90;;;;;;4900571;29;20239;-82
2023/04/16 04:15:45;;;;;;;;;;;7.00;99.90;;;;;;4899883;29;19927;-82
2023/04/16 04:18:12;;;;;;;;;;;7.10;99.90;;;;;;4884915;29;20018;-82
2023/04/16 04:20:38;;;;;;;;;;;7.10;99.90;;;;;;4901432;29;20274;-83
2023/04/16 04:23:07;;;;;;;;;;;7.10;99.90;;;;;;4901120;29;19933;-83
2023/04/16 04:25:34;;;;;;;;;;;7.10;99.90;;;;;;4903594;29;20026;-82
2023/04/16 04:28:00;;;;;;;;;;;7.10;99.90;;;;;;4919991;29;19923;-82
2023/04/16 04:30:27;;;;;;;;;;;7.10;99.90;;;;;;4918568;29;19923;-82
2023/04/16 04:32:55;;;;;;;;;;;7.20;99.90;;;;;;4919131;29;19926;-82
2023/04/16 04:35:22;;;;;;;;;;;7.20;99.90;;;;;;4919070;29;19930;-82
2023/04/16 04:37:49;;;;;;;;;;;7.20;99.90;;;;;;4903607;29;19986;-82
2023/04/16 04:40:18;;;;;;;;;;;7.20;99.90;;;;;;4918626;29;19959;-82
2023/04/16 04:42:46;;;;;;;;;;;7.20;99.90;;;;;;4918078;29;19955;-82
2023/04/16 04:45:14;;;;;;;;;;;7.20;99.90;;;;;;4919044;29;19934;-82
2023/04/16 04:47:40;;;;;;;;;;;7.20;99.90;;;;;;4902423;29;19923;-82
2023/04/16 04:50:07;;;;;;;;;;;7.20;99.90;;;;;;4901847;29;19937;-83
2023/04/16 04:52:34;;;;;;;;;;;7.30;99.90;;;;;;4918666;29;19922;-83
2023/04/16 04:55:01;;;;;;;;;;;7.30;99.90;;;;;;4902033;29;19966;-82
2023/04/16 04:57:29;;;;;;;;;;;7.30;99.90;;;;;;4918503;29;19930;-82
2023/04/16 04:59:55;;;;;;;;;;;7.30;99.90;;;;;;4918158;29;19923;-83
2023/04/16 05:05:16;;;;;;;;;;;7.20;99.90;;;;;;4918355;29;20041;-82
2023/04/16 05:07:43;;;;;;;;;;;7.30;99.90;;;;;;4919570;29;19930;-82
2023/04/16 05:10:09;;;;;;;;;;;7.30;99.90;;;;;;4917373;29;20243;-82
2023/04/16 05:15:07;;;;;;;;;;;7.30;99.90;;;;;;4918616;29;19937;-82
2023/04/16 05:17:34;;;;;;;;;;;7.30;99.90;;;;;;4902638;29;19923;-82
2023/04/16 05:20:01;;;;;;;;;;;7.30;99.90;;;;;;4918296;29;20006;-82
2023/04/16 05:22:29;;;;;;;;;;;7.40;99.90;;;;;;4917468;29;19927;-82
2023/04/16 05:24:56;;;;;;;;;;;7.40;99.90;;;;;;4902471;29;19923;-82
2023/04/16 05:27:22;;;;;;;;;;;7.40;99.90;;;;;;4919137;29;19996;-82
2023/04/16 05:29:49;;;;;;;;;;;7.50;99.90;;;;;;4918057;29;20258;-82
2023/04/16 05:32:16;;;;;;;;;;;7.50;99.90;;;;;;4919096;29;19922;-82
2023/04/16 05:34:43;;;;;;;;;;;7.50;99.90;;;;;;4917637;29;19955;-81
2023/04/16 05:37:09;;;;;;;;;;;7.60;99.90;;;;;;4919012;29;19930;-82
2023/04/16 05:39:36;;;;;;;;;;;7.60;99.90;;;;;;4917818;29;20013;-82
2023/04/16 05:44:49;;;;;;;;;;;7.60;99.90;;;;;;4918926;29;19998;-82
2023/04/16 05:47:16;;;;;;;;;;;7.60;99.90;;;;;;4919000;29;19931;-82
2023/04/16 05:49:43;;;;;;;;;;;7.60;99.90;;;;;;4917693;29;20006;-82
2023/04/16 05:52:09;;;;;;;;;;;7.70;99.90;;;;;;4917909;29;19923;-83
2023/04/16 05:54:36;;;;;;;;;;;7.70;99.90;;;;;;4917997;29;19923;-83
2023/04/16 05:57:03;;;;;;;;;;;7.70;99.90;;;;;;4918089;29;19934;-82
2023/04/16 05:59:30;;;;;;;;;;;7.80;99.90;;;;;;4920445;29;19922;-82
2023/04/16 06:01:56;;;;;;;;;;;7.90;99.90;;;;;;4921327;29;19929;-82
2023/04/16 06:04:23;;;;;;;;;;;7.90;99.90;;;;;;4921946;29;19958;-83
2023/04/16 06:06:50;;;;;;;;;;;8.00;99.90;;;;;;4922443;29;20325;-82
2023/04/16 06:09:17;;;;;;;;;;;8.00;99.90;;;;;;4921585;29;19942;-82
2023/04/16 06:11:44;;;;;;;;;;;8.10;99.90;;;;;;4921668;29;19990;-82
2023/04/16 06:14:13;;;;;;;;;;;8.20;99.90;;;;;;4922391;29;20269;-83
2023/04/16 06:16:40;;;;;;;;;;;8.20;99.90;;;;;;4920858;29;19923;-82
2023/04/16 06:19:07;;;;;;;;;;;8.30;99.90;;;;;;4921515;29;20262;-82
2023/04/16 06:21:34;;;;;;;;;;;8.40;99.90;;;;;;4921719;29;19923;-82
2023/04/16 06:24:02;;;;;;;;;;;8.50;99.90;;;;;;4922413;29;19995;-83
2023/04/16 06:26:28;;;;;;;;;;;8.60;99.90;;;;;;4906190;29;19938;-82
2023/04/16 06:28:55;;;;;;;;;;;8.60;99.90;;;;;;4921699;29;19958;-82
2023/04/16 06:31:22;;;;;;;;;;;8.80;99.90;;;;;;4922921;29;19923;-83
2023/04/16 06:36:18;;;;;;;;;;;8.90;99.90;;;;;;4921368;29;19927;-83
2023/04/16 06:38:45;;;;;;;;;;;9.00;99.90;;;;;;4922039;29;20247;-83
2023/04/16 06:41:12;;;;;;;;;;;9.10;99.90;;;;;;4905919;29;19923;-83
2023/04/16 06:43:39;;;;;;;;;;;9.20;99.90;;;;;;4905151;29;19952;-83
2023/04/16 06:46:06;;;;;;;;;;;9.30;99.90;;;;;;4922233;29;19969;-81
2023/04/16 06:48:33;;;;;;;;;;;9.40;99.90;;;;;;4920762;29;19959;-84
2023/04/16 06:51:00;;;;;;;;;;;9.50;99.90;;;;;;4921805;29;19923;-82
2023/04/16 06:53:27;;;;;;;;;;;9.60;99.90;;;;;;4922010;29;19923;-83
2023/04/16 06:55:53;;;;;;;;;;;9.70;99.90;;;;;;4921195;29;19923;-84
2023/04/16 06:58:21;;;;;;;;;;;9.80;99.90;;;;;;4905101;29;19934;-83
2023/04/16 07:00:47;;;;;;;;;;;9.90;99.90;;;;;;4905073;29;19923;-82
2023/04/16 07:03:14;;;;;;;;;;;10.00;99.90;;;;;;4904721;29;19931;-82
2023/04/16 07:05:41;;;;;;;;;;;10.10;99.90;;;;;;4921443;29;19934;-82
2023/04/16 07:08:08;;;;;;;;;;;10.20;99.90;;;;;;4904186;29;20300;-82
2023/04/16 07:10:35;;;;;;;;;;;10.20;99.90;;;;;;4920910;29;19923;-82
2023/04/16 07:15:32;;;;;;;;;;;10.50;99.90;;;;;;4920849;29;19923;-82
2023/04/16 07:17:59;;;;;;;;;;;10.70;99.90;;;;;;4921116;29;19927;-81
2023/04/16 07:20:26;;;;;;;;;;;10.70;99.90;;;;;;4921141;29;19923;-82
2023/04/16 07:22:52;;;;;;;;;;;10.80;99.90;;;;;;4920414;29;19923;-82
2023/04/16 07:25:19;;;;;;;;;;;10.90;99.90;;;;;;4921714;29;20357;-82
2023/04/16 07:27:45;;;;;;;;;;;11.00;99.90;;;;;;4921228;29;19922;-81
2023/04/16 07:30:12;;;;;;;;;;;11.10;99.90;;;;;;4919944;29;19923;-80
2023/04/16 07:32:41;;;;;;;;;;;11.20;99.90;;;;;;4922708;29;19937;-82
2023/04/16 07:35:08;;;;;;;;;;;11.20;99.90;;;;;;4919383;29;20285;-83
2023/04/16 07:37:35;;;;;;;;;;;11.40;99.90;;;;;;4920931;29;19950;-82
2023/04/16 07:40:01;;;;;;;;;;;11.50;99.90;;;;;;4919674;29;19930;-81
2023/04/16 07:45:00;;;;;;;;;;;11.80;99.90;;;;;;4920845;29;19923;-82
2023/04/16 07:47:26;;;;;;;;;;;11.90;99.90;;;;;;4920750;29;19923;-82
2023/04/16 07:49:53;;;;;;;;;;;12.00;99.90;;;;;;4918556;29;19986;-82
2023/04/16 07:52:20;;;;;;;;;;;12.20;99.90;;;;;;4920315;29;19934;-83
2023/04/16 07:54:47;;;;;;;;;;;12.50;99.90;;;;;;4920017;29;19923;-85
2023/04/16 07:57:15;;;;;;;;;;;12.60;99.90;;;;;;4928174;29;19931;-87
2023/04/16 07:59:42;;;;;;;;;;;12.80;99.90;;;;;;4904700;29;19923;-86
2023/04/16 08:04:54;;;;;;;;;;;13.10;99.90;;;;;;4920315;29;19933;-84
2023/04/16 08:07:21;;;;;;;;;;;13.30;99.90;;;;;;4903420;29;19923;-82
2023/04/16 08:09:48;;;;;;;;;;;13.40;99.90;;;;;;4902006;29;20057;-83
2023/04/16 08:12:18;;;;;;;;;;;13.50;99.90;;;;;;4919425;29;20372;-83
2023/04/16 08:14:44;;;;;;;;;;;13.50;99.90;;;;;;4918967;29;19923;-84
2023/04/16 08:17:13;;;;;;;;;;;13.50;99.90;;;;;;4919936;29;19950;-83
2023/04/16 08:19:39;;;;;;;;;;;13.60;99.90;;;;;;4902331;29;19927;-83
2023/04/16 08:22:06;;;;;;;;;;;13.70;99.90;;;;;;4901413;29;20039;-84
2023/04/16 08:24:33;;;;;;;;;;;13.90;99.90;;;;;;4913511;29;19923;-82
2023/04/16 08:27:04;;;;;;;;;;;14.00;99.90;;;;;;4898852;29;19924;-82
2023/04/16 08:29:43;;;;;;;;;;;14.00;99.90;;;;;;4898522;29;19933;-83
2023/04/16 08:32:10;;;;;;;;;;;14.10;99.90;;;;;;4900155;29;19934;-83
2023/04/16 08:34:37;;;;;;;;;;;14.20;99.90;;;;;;4910797;29;19923;-83
2023/04/16 08:37:03;;;;;;;;;;;14.20;99.90;;;;;;4900916;29;20343;-82
2023/04/16 08:39:30;;;;;;;;;;;14.20;99.90;;;;;;4902092;29;19923;-85
2023/04/16 08:41:57;;;;;;;;;;;14.20;99.90;;;;;;4917491;29;19934;-86
2023/04/16 08:44:34;;;;;;;;;;;14.20;99.90;;;;;;5144650;27;19923;-89
2023/04/16 08:47:01;;;;;;;;;;;14.30;99.90;;;;;;5097663;28;20319;-85
2023/04/16 08:49:31;;;;;;;;;;;14.20;99.90;;;;;;5114170;28;19928;-85
2023/04/16 08:51:59;;;;;;;;;;;14.30;99.90;;;;;;5111336;28;19977;-86
2023/04/16 08:54:29;;;;;;;;;;;14.40;99.90;;;;;;5112461;28;19959;-86
2023/04/16 08:56:59;;;;;;;;;;;14.60;99.90;;;;;;5111418;28;19928;-87
2023/04/16 08:59:26;;;;;;;;;;;14.70;99.90;;;;;;5112760;28;19924;-87
2023/04/16 09:01:55;;;;;;;;;;;14.70;99.90;;;;;;5095680;28;19932;-87
2023/04/16 09:04:22;;;;;;;;;;;14.80;99.90;;;;;;5112524;28;19924;-86
2023/04/16 09:06:49;;;;;;;;;;;14.90;99.90;;;;;;5111723;28;19924;-87
2023/04/16 09:09:16;;;;;;;;;;;14.90;99.90;;;;;;5110495;28;20290;-86
2023/04/16 09:11:44;;;;;;;;;;;15.10;99.90;;;;;;5112497;28;19924;-87
2023/04/16 09:14:11;;;;;;;;;;;15.10;99.90;;;;;;5111738;28;19924;-87
2023/04/16 09:16:40;;;;;;;;;;;15.00;99.90;;;;;;5110753;28;19935;-86
2023/04/16 09:19:07;;;;;;;;;;;15.10;99.90;;;;;;5111172;28;19946;-83
2023/04/16 09:21:35;;;;;;;;;;;15.30;99.90;;;;;;5110812;28;19924;-84
2023/04/16 09:27:05;;;;;;;;;;;15.20;99.90;;;;;;5117438;28;19924;-92
2023/04/16 09:29:37;;;;;;;;;;;15.40;99.90;;;;;;5099988;28;19928;-90
2023/04/16 09:32:07;;;;;;;;;;;15.50;99.90;;;;;;5102268;28;19953;-88
2023/04/16 09:34:34;;;;;;;;;;;15.60;99.90;;;;;;5117573;28;19923;-89
2023/04/16 09:37:04;;;;;;;;;;;15.60;99.90;;;;;;5114760;28;19965;-89
2023/04/16 09:39:41;;;;;;;;;;;15.70;99.90;;;;;;5099646;28;20391;-85
2023/04/16 09:42:08;;;;;;;;;;;15.70;99.90;;;;;;5114899;28;19935;-90
2023/04/16 09:44:39;;;;;;;;;;;15.90;99.90;;;;;;5097777;28;19927;-85
2023/04/16 09:47:06;;;;;;;;;;;15.80;99.90;;;;;;5108116;28;19924;-86
2023/04/16 09:49:32;;;;;;;;;;;16.00;99.90;;;;;;5085472;28;19935;-85
2023/04/16 09:52:01;;;;;;;;;;;16.20;99.90;;;;;;5099496;28;19924;-86
2023/04/16 09:54:28;;;;;;;;;;;16.30;99.90;;;;;;5091252;28;19931;-86
2023/04/16 09:56:54;;;;;;;;;;;16.60;99.90;;;;;;5063370;28;19924;-87
2023/04/16 09:59:21;;;;;;;;;;;16.40;99.90;;;;;;5098134;28;20281;-86
2023/04/16 10:01:48;;;;;;;;;;;16.30;99.90;;;;;;5079925;28;19923;-86
2023/04/16 10:04:15;;;;;;;;;;;16.30;99.90;;;;;;5080216;28;19924;-87
2023/04/16 10:06:43;;;;;;;;;;;16.60;99.90;;;;;;5063511;28;20366;-87
2023/04/16 10:09:09;;;;;;;;;;;16.80;99.90;;;;;;5062754;28;19924;-87
2023/04/16 10:11:36;;;;;;;;;;;17.00;99.90;;;;;;5080116;28;20310;-86
2023/04/16 10:14:05;;;;;;;;;;;17.00;99.90;;;;;;5066135;28;19935;-87
2023/04/16 10:16:31;;;;;;;;;;;16.90;99.90;;;;;;5081964;28;19932;-86
2023/04/16 10:18:58;;;;;;;;;;;16.50;99.90;;;;;;5079892;28;19967;-86
2023/04/16 10:21:32;;;;;;;;;;;16.40;99.90;;;;;;5079286;28;19967;-85
2023/04/16 10:24:00;;;;;;;;;;;16.50;99.90;;;;;;5068768;28;19924;-86
2023/04/16 10:26:27;;;;;;;;;;;16.60;99.90;;;;;;5100279;28;19924;-88
2023/04/16 10:28:53;;;;;;;;;;;16.60;99.90;;;;;;5082626;28;19938;-87
2023/04/16 10:31:20;;;;;;;;;;;16.40;99.90;;;;;;5083273;28;20381;-86
2023/04/16 10:36:33;;;;;;;;;;;16.10;99.90;;;;;;5099403;28;19924;-86
2023/04/16 10:38:59;;;;;;;;;;;16.20;99.90;;;;;;5099843;28;20031;-86
2023/04/16 10:41:26;;;;;;;;;;;16.50;99.90;;;;;;5099051;28;19934;-85
2023/04/16 10:43:53;;;;;;;;;;;16.80;99.90;;;;;;5099739;28;19924;-87
2023/04/16 10:46:19;;;;;;;;;;;16.90;99.90;;;;;;5076927;28;20018;-84
2023/04/16 10:48:46;;;;;;;;;;;16.80;99.90;;;;;;5082821;28;19978;-86
2023/04/16 10:51:16;;;;;;;;;;;16.80;99.90;;;;;;5100434;28;20266;-87
2023/04/16 10:53:44;;;;;;;;;;;16.80;99.90;;;;;;5082559;28;19930;-85
2023/04/16 10:56:11;;;;;;;;;;;16.80;99.90;;;;;;5078825;28;20031;-85
2023/04/16 10:58:38;;;;;;;;;;;16.90;99.90;;;;;;5079181;28;19934;-85
2023/04/16 11:01:04;;;;;;;;;;;17.00;99.90;;;;;;5079103;28;20329;-87
2023/04/16 11:03:31;;;;;;;;;;;16.90;99.90;;;;;;5061932;28;19978;-85
2023/04/16 11:05:58;;;;;;;;;;;17.00;99.90;;;;;;5061530;28;19924;-87
2023/04/16 11:08:25;;;;;;;;;;;17.30;99.90;;;;;;5080532;28;20270;-85
2023/04/16 11:10:53;;;;;;;;;;;17.50;99.90;;;;;;5100020;28;19924;-85
2023/04/16 11:13:19;;;;;;;;;;;17.70;99.90;;;;;;5090858;28;19930;-88
2023/04/16 11:15:46;;;;;;;;;;;17.90;99.90;;;;;;5098861;28;19924;-86
2023/04/16 11:18:13;;;;;;;;;;;18.20;99.90;;;;;;5095393;28;19968;-86
2023/04/16 11:20:39;;;;;;;;;;;18.00;98.10;;;;;;5082463;28;19934;-86
2023/04/16 11:23:08;;;;;;;;;;;18.00;99.90;;;;;;5096155;28;20030;-85
2023/04/16 11:25:35;;;;;;;;;;;18.20;99.90;;;;;;5080908;28;19934;-86
2023/04/16 11:28:02;;;;;;;;;;;18.50;99.20;;;;;;5099252;28;19924;-84
2023/04/16 11:30:29;;;;;;;;;;;18.50;99.90;;;;;;5099150;28;20330;-86
2023/04/16 11:32:58;;;;;;;;;;;18.50;97.90;;;;;;5098965;28;19934;-85
2023/04/16 11:35:25;;;;;;;;;;;18.60;98.30;;;;;;5116504;28;19934;-86
2023/04/16 11:37:51;;;;;;;;;;;18.50;97.50;;;;;;5081950;28;19923;-85
2023/04/16 11:40:18;;;;;;;;;;;18.60;95.60;;;;;;5082415;28;19935;-85
2023/04/16 11:42:45;;;;;;;;;;;18.40;93.90;;;;;;5085289;28;19935;-86
2023/04/16 11:45:11;;;;;;;;;;;18.20;94.60;;;;;;5078410;28;19956;-84
2023/04/16 11:47:38;;;;;;;;;;;18.00;96.80;;;;;;5078570;28;19924;-85
2023/04/16 11:50:04;;;;;;;;;;;17.70;95.60;;;;;;5077683;28;19930;-85
2023/04/16 11:52:31;;;;;;;;;;;17.90;95.40;;;;;;5061719;28;19935;-85
2023/04/16 11:54:58;;;;;;;;;;;18.00;98.30;;;;;;5077906;28;20281;-85
2023/04/16 11:57:25;;;;;;;;;;;18.30;93.70;;;;;;5078109;28;20342;-85
2023/04/16 11:59:52;;;;;;;;;;;18.20;92.90;;;;;;5095964;28;19935;-84
2023/04/16 12:02:38;;;;;;;;;;;18.30;95.30;;;;;;5095393;28;20002;-83
2023/04/16 12:05:06;;;;;;;;;;;18.40;93.20;;;;;;5095450;28;19966;-85
2023/04/16 12:07:33;;;;;;;;;;;18.30;94.00;;;;;;5098429;28;19924;-84
2023/04/16 12:10:00;;;;;;;;;;;18.50;93.20;;;;;;5097649;28;19924;-87
2023/04/16 12:12:29;;;;;;;;;;;18.60;92.60;;;;;;5098658;28;19996;-85
2023/04/16 12:14:58;;;;;;;;;;;19.10;91.20;;;;;;5097877;28;19931;-86
2023/04/16 12:17:25;;;;;;;;;;;19.00;90.00;;;;;;5097726;28;20342;-84
2023/04/16 12:19:52;;;;;;;;;;;19.10;90.50;;;;;;5098143;28;20026;-86
2023/04/16 12:22:20;;;;;;;;;;;19.30;92.80;;;;;;5097440;28;19924;-86
2023/04/16 12:24:46;;;;;;;;;;;19.40;91.20;;;;;;5077653;28;19924;-86
2023/04/16 12:27:15;;;;;;;;;;;19.50;91.00;;;;;;5078194;28;20270;-85
2023/04/16 12:29:41;;;;;;;;;;;19.60;89.30;;;;;;5076634;28;19924;-86
2023/04/16 12:32:08;;;;;;;;;;;19.60;89.70;;;;;;5077684;28;20244;-86
2023/04/16 12:34:36;;;;;;;;;;;19.60;88.30;;;;;;5077703;28;19939;-85
2023/04/16 12:37:14;;;;;;;;;;;19.60;87.50;;;;;;5079863;28;19928;-85
2023/04/16 12:39:41;;;;;;;;;;;19.50;85.00;;;;;;5077515;28;19978;-83
2023/04/16 12:42:11;;;;;;;;;;;19.60;90.50;;;;;;5094367;28;20015;-84
2023/04/16 12:44:38;;;;;;;;;;;20.00;90.10;;;;;;5095183;28;20372;-85
2023/04/16 12:47:05;;;;;;;;;;;20.30;84.70;;;;;;5059097;28;20289;-86
2023/04/16 12:49:35;;;;;;;;;;;20.50;86.00;;;;;;5093583;28;19928;-87
2023/04/16 12:52:02;;;;;;;;;;;20.60;80.40;;;;;;5092617;28;19977;-85
2023/04/16 12:54:30;;;;;;;;;;;20.70;85.90;;;;;;5107980;28;20349;-83
2023/04/16 12:56:56;;;;;;;;;;;20.90;85.00;;;;;;5096787;28;20247;-82
2023/04/16 12:59:23;;;;;;;;;;;21.10;81.70;;;;;;5097270;28;19923;-85
2023/04/16 13:01:49;;;;;;;;;;;21.50;77.90;;;;;;5096605;28;19924;-85
2023/04/16 13:04:17;;;;;;;;;;;22.00;79.10;;;;;;5080928;28;19924;-86
2023/04/16 13:06:44;;;;;;;;;;;22.40;79.70;;;;;;5097652;28;19981;-84
2023/04/16 13:09:11;;;;;;;;;;;22.40;79.20;;;;;;5096348;28;19927;-84
2023/04/16 13:11:38;;;;;;;;;;;22.60;73.60;;;;;;5078456;28;19924;-84
2023/04/16 13:14:05;;;;;;;;;;;22.30;74.50;;;;;;5077086;28;20420;-86
2023/04/16 13:16:31;;;;;;;;;;;22.20;76.00;;;;;;5076495;28;19934;-84
2023/04/16 13:18:58;;;;;;;;;;;22.80;75.30;;;;;;5060241;28;19924;-86
2023/04/16 13:21:26;;;;;;;;;;;23.40;70.80;;;;;;5059977;28;19939;-85
2023/04/16 13:23:52;;;;;;;;;;;23.20;69.60;;;;;;5084349;28;20350;-83
2023/04/16 13:26:19;;;;;;;;;;;22.70;68.60;;;;;;5095082;28;19930;-85
2023/04/16 13:28:46;;;;;;;;;;;23.10;72.00;;;;;;5076147;28;19959;-84
2023/04/16 13:31:14;;;;;;;;;;;23.30;71.30;;;;;;5080533;28;20014;-83
2023/04/16 13:33:41;;;;;;;;;;;23.00;68.00;;;;;;5082495;28;19943;-85
2023/04/16 13:36:08;;;;;;;;;;;22.20;72.00;;;;;;5082929;28;19948;-84
2023/04/16 13:38:34;;;;;;;;;;;22.10;69.70;;;;;;5081132;28;19950;-85
2023/04/16 13:41:01;;;;;;;;;;;21.30;68.40;;;;;;5080851;28;19934;-87
2023/04/16 13:43:28;;;;;;;;;;;20.80;70.70;;;;;;5080047;28;20022;-88
2023/04/16 13:45:54;;;;;;;;;;;20.30;72.90;;;;;;5064140;28;20247;-85
2023/04/16 13:48:21;;;;;;;;;;;19.80;72.40;;;;;;5079561;28;19924;-85
2023/04/16 13:50:47;;;;;;;;;;;19.50;73.40;;;;;;5098336;28;19924;-84
2023/04/16 13:53:14;;;;;;;;;;;19.50;74.60;;;;;;5080505;28;20296;-87
2023/04/16 13:55:41;;;;;;;;;;;19.50;73.70;;;;;;5063032;28;19982;-85
2023/04/16 13:58:08;;;;;;;;;;;19.60;74.30;;;;;;5098060;28;19947;-86
2023/04/16 14:00:35;;;;;;;;;;;19.80;73.20;;;;;;5080453;28;20463;-87
2023/04/16 14:03:02;;;;;;;;;;;20.00;76.30;;;;;;5079648;28;20378;-86
2023/04/16 14:05:28;;;;;;;;;;;20.20;74.60;;;;;;5080258;28;19985;-85
2023/04/16 14:07:55;;;;;;;;;;;20.30;73.20;;;;;;5080206;28;20015;-86
2023/04/16 14:10:22;;;;;;;;;;;20.20;71.70;;;;;;5079475;28;19935;-86
2023/04/16 14:15:35;;;;;;;;;;;20.30;73.10;;;;;;5096940;28;19924;-87
2023/04/16 14:18:02;;;;;;;;;;;20.20;71.40;;;;;;5097570;28;20358;-86
2023/04/16 14:20:29;;;;;;;;;;;20.00;73.60;;;;;;5097968;28;19967;-86
2023/04/16 14:25:41;;;;;;;;;;;20.00;72.20;;;;;;5097105;28;19924;-87
2023/04/16 14:28:08;;;;;;;;;;;19.90;73.50;;;;;;5079311;28;19935;-88
2023/04/16 14:30:34;;;;;;;;;;;19.70;71.80;;;;;;5079750;28;19928;-87
2023/04/16 14:35:32;;;;;;;;;;;20.00;77.90;;;;;;5096900;28;20274;-88
2023/04/16 14:38:00;;;;;;;;;;;20.10;74.00;;;;;;5080128;28;20311;-88
2023/04/16 14:40:26;;;;;;;;;;;20.00;74.90;;;;;;5079136;28;19924;-87
2023/04/16 14:42:53;;;;;;;;;;;19.80;73.70;;;;;;5084361;28;19939;-86
2023/04/16 14:45:20;;;;;;;;;;;19.60;75.50;;;;;;5092259;28;19928;-84
2023/04/16 14:47:46;;;;;;;;;;;19.40;74.90;;;;;;5095860;28;20001;-85
2023/04/16 14:50:16;;;;;;;;;;;19.30;76.30;;;;;;5084440;28;19924;-83
2023/04/16 14:52:42;;;;;;;;;;;19.50;76.20;;;;;;5077791;28;19929;-85
2023/04/16 14:55:09;;;;;;;;;;;19.60;75.10;;;;;;5083587;28;19978;-85
2023/04/16 14:57:37;;;;;;;;;;;19.40;76.00;;;;;;5081556;28;20365;-84
2023/04/16 15:00:06;;;;;;;;;;;19.20;75.60;;;;;;5064832;28;20073;-84
2023/04/16 15:02:34;;;;;;;;;;;19.20;78.70;;;;;;5083226;28;19964;-85
2023/04/16 15:05:01;;;;;;;;;;;19.40;78.90;;;;;;5086065;28;19934;-86
2023/04/16 15:07:28;;;;;;;;;;;19.60;77.50;;;;;;5065167;28;19935;-84
2023/04/16 15:09:55;;;;;;;;;;;19.30;77.50;;;;;;5082436;28;19932;-87
2023/04/16 15:12:22;;;;;;;;;;;19.20;76.20;;;;;;5092960;28;19993;-85
2023/04/16 15:14:48;;;;;;;;;;;18.80;77.20;;;;;;5093331;28;20364;-85
2023/04/16 15:17:15;;;;;;;;;;;18.70;78.80;;;;;;5092319;28;20385;-86
2023/04/16 15:19:42;;;;;;;;;;;18.50;78.30;;;;;;5067635;28;20023;-84